Time;durP1;ratioP1;P1;durP2;ratioP2;P2;SDS_P1;SDS_P2;PMS_P1;PMS_P2;Temp;Humidity;BMP_temperature;BMP_pressure;BME280_temperature;BME280_humidity;BME280_pressure;Samples;Min_cycle;Max_cycle;Signal;HPM_P1;HPM_P2
2022/07/14 00:00:51;;;;;;;5.93;3.10;;;21.30;99.90;;;;;;5049645;28;20028;-59
2022/07/14 00:03:16;;;;;;;5.82;2.97;;;21.30;99.90;;;;;;5049328;28;20044;-59
2022/07/14 00:05:42;;;;;;;9.80;3.80;;;21.30;99.90;;;;;;5050067;28;20036;-59
2022/07/14 00:08:07;;;;;;;7.25;3.50;;;21.30;99.90;;;;;;5049033;28;20432;-59
2022/07/14 00:10:34;;;;;;;5.55;3.40;;;21.20;99.90;;;;;;5049549;28;20036;-59
2022/07/14 00:12:59;;;;;;;10.07;3.53;;;21.20;99.90;;;;;;5043821;28;20035;-60
2022/07/14 00:15:25;;;;;;;4.22;3.10;;;21.10;99.90;;;;;;5029085;28;20108;-58
2022/07/14 00:17:52;;;;;;;6.05;3.13;;;21.10;99.90;;;;;;5029619;28;20030;-59
2022/07/14 00:20:18;;;;;;;10.07;3.95;;;21.10;99.90;;;;;;5029153;28;20369;-59
2022/07/14 00:22:44;;;;;;;4.72;3.50;;;21.00;99.90;;;;;;5030112;28;20017;-59
2022/07/14 00:25:10;;;;;;;7.47;3.85;;;21.00;99.90;;;;;;5029065;28;20028;-59
2022/07/14 00:27:39;;;;;;;6.35;3.45;;;21.00;99.90;;;;;;5041917;28;20083;-59
2022/07/14 00:30:05;;;;;;;10.88;3.72;;;20.90;99.90;;;;;;5049622;28;20043;-58
2022/07/14 00:32:34;;;;;;;7.15;4.10;;;20.90;99.90;;;;;;5049445;28;20029;-58
2022/07/14 00:34:59;;;;;;;14.57;4.40;;;20.80;99.90;;;;;;5049641;28;20025;-58
2022/07/14 00:37:25;;;;;;;14.25;4.43;;;20.80;99.90;;;;;;5049069;28;20028;-56
2022/07/14 00:39:56;;;;;;;18.15;4.75;;;20.80;99.90;;;;;;5049354;28;20386;-58
2022/07/14 00:42:37;;;;;;;9.25;4.82;;;20.70;99.90;;;;;;5036001;28;20065;-58
2022/07/14 00:45:08;;;;;;;11.52;5.30;;;20.70;99.90;;;;;;5029267;28;20021;-57
2022/07/14 00:47:35;;;;;;;9.38;4.18;;;20.60;99.90;;;;;;5029341;28;20025;-59
2022/07/14 00:50:01;;;;;;;11.98;4.28;;;20.60;99.90;;;;;;5029113;28;20059;-57
2022/07/14 00:52:28;;;;;;;8.80;4.45;;;20.50;99.90;;;;;;5031542;28;20032;-59
2022/07/14 00:54:54;;;;;;;7.30;4.07;;;20.50;99.90;;;;;;5034052;28;20029;-58
2022/07/14 00:57:21;;;;;;;13.05;4.05;;;20.50;99.90;;;;;;5033423;28;20427;-57
2022/07/14 00:59:47;;;;;;;8.63;4.30;;;20.50;99.90;;;;;;5052403;28;20028;-58
2022/07/14 01:02:14;;;;;;;8.52;4.47;;;20.40;99.90;;;;;;5049363;28;20143;-58
2022/07/14 01:04:39;;;;;;;9.75;4.82;;;20.40;99.90;;;;;;5052486;28;20048;-58
2022/07/14 01:07:05;;;;;;;12.23;3.97;;;20.40;99.90;;;;;;5034987;28;20060;-58
2022/07/14 01:09:31;;;;;;;9.25;4.22;;;20.30;99.90;;;;;;5032732;28;20038;-57
2022/07/14 01:11:56;;;;;;;16.52;4.97;;;20.30;99.90;;;;;;5032652;28;20048;-58
2022/07/14 01:14:22;;;;;;;10.57;4.90;;;20.20;99.90;;;;;;5035057;28;20037;-59
2022/07/14 01:16:53;;;;;;;10.10;4.32;;;20.20;99.90;;;;;;5032648;28;20068;-58
2022/07/14 01:19:20;;;;;;;11.40;4.97;;;20.10;99.90;;;;;;5032554;28;20033;-57
2022/07/14 01:21:46;;;;;;;13.98;4.32;;;20.10;99.90;;;;;;5032212;28;20055;-58
2022/07/14 01:24:11;;;;;;;14.90;4.90;;;20.00;99.90;;;;;;5032844;28;20127;-57
2022/07/14 01:26:37;;;;;;;8.32;4.10;;;20.00;99.90;;;;;;5032370;28;20171;-57
2022/07/14 01:29:02;;;;;;;10.77;4.75;;;20.00;99.90;;;;;;5031944;28;20021;-56
2022/07/14 01:31:28;;;;;;;11.02;4.82;;;20.00;99.90;;;;;;5031885;28;20507;-59
2022/07/14 01:33:54;;;;;;;10.32;5.05;;;20.00;99.90;;;;;;5032308;28;20502;-57
2022/07/14 01:36:20;;;;;;;10.40;4.53;;;20.00;99.90;;;;;;5037722;28;20037;-58
2022/07/14 01:38:46;;;;;;;16.65;5.40;;;20.00;99.90;;;;;;5051491;28;20036;-58
2022/07/14 01:41:12;;;;;;;15.23;5.65;;;20.00;99.90;;;;;;5052275;28;20066;-57
2022/07/14 01:43:37;;;;;;;8.45;4.82;;;19.90;99.90;;;;;;5051243;28;20021;-58
2022/07/14 01:46:03;;;;;;;13.68;4.30;;;19.90;99.90;;;;;;5051456;28;20028;-58
2022/07/14 01:48:28;;;;;;;8.63;4.45;;;19.90;99.90;;;;;;5051485;28;20392;-58
2022/07/14 01:50:54;;;;;;;8.48;4.15;;;19.90;99.90;;;;;;5048406;28;20029;-59
2022/07/14 01:53:20;;;;;;;16.95;5.28;;;19.90;99.90;;;;;;5030777;28;20083;-57
2022/07/14 01:55:45;;;;;;;16.38;5.57;;;19.90;99.90;;;;;;5032388;28;20372;-55
2022/07/14 01:58:11;;;;;;;15.27;4.95;;;19.80;99.90;;;;;;5032353;28;20072;-58
2022/07/14 02:00:36;;;;;;;10.38;4.45;;;19.80;99.90;;;;;;5033349;28;20022;-57
2022/07/14 02:03:02;;;;;;;11.35;5.07;;;19.70;99.90;;;;;;5030988;28;20025;-58
2022/07/14 02:05:27;;;;;;;16.58;5.18;;;19.70;99.90;;;;;;5032036;28;20539;-56
2022/07/14 02:07:53;;;;;;;14.38;4.97;;;19.60;99.90;;;;;;5038436;28;20025;-55
2022/07/14 02:13:03;;;;;;;19.85;4.80;;;19.60;99.90;;;;;;5051820;28;20510;-59
2022/07/14 02:15:28;;;;;;;13.25;5.88;;;19.50;99.90;;;;;;5037721;28;20037;-57
2022/07/14 02:17:54;;;;;;;11.98;4.80;;;19.50;99.90;;;;;;5032342;28;20034;-57
2022/07/14 02:20:20;;;;;;;9.23;4.68;;;19.50;99.90;;;;;;5031782;28;20088;-55
2022/07/14 02:22:45;;;;;;;13.60;4.95;;;19.40;99.90;;;;;;5031662;28;20028;-56
2022/07/14 02:25:12;;;;;;;12.52;4.75;;;19.40;99.90;;;;;;5031789;28;20029;-57
2022/07/14 02:27:38;;;;;;;17.27;4.78;;;19.40;99.90;;;;;;5031833;28;20523;-57
2022/07/14 02:30:04;;;;;;;10.15;3.95;;;19.30;99.90;;;;;;5043826;28;20028;-56
2022/07/14 02:32:31;;;;;;;14.65;5.72;;;19.20;99.90;;;;;;5051736;28;20033;-56
2022/07/14 02:34:57;;;;;;;16.08;4.72;;;19.20;99.90;;;;;;5051258;28;20107;-57
2022/07/14 02:37:23;;;;;;;15.02;5.35;;;19.20;99.90;;;;;;5051454;28;20505;-58
2022/07/14 02:39:48;;;;;;;17.88;5.85;;;19.10;99.90;;;;;;5051518;28;20049;-57
2022/07/14 02:42:14;;;;;;;11.95;5.80;;;19.10;99.90;;;;;;5051056;28;20036;-59
2022/07/14 02:44:39;;;;;;;14.05;4.50;;;19.20;99.90;;;;;;5031958;28;20034;-59
2022/07/14 02:47:05;;;;;;;22.15;5.88;;;19.20;99.90;;;;;;5031865;28;20033;-59
2022/07/14 02:49:30;;;;;;;14.82;4.97;;;19.10;99.90;;;;;;5031276;28;20025;-59
2022/07/14 02:51:56;;;;;;;13.68;4.80;;;19.10;99.90;;;;;;5031114;28;20113;-56
2022/07/14 02:54:22;;;;;;;17.15;5.57;;;19.10;99.90;;;;;;5032368;28;20534;-56
2022/07/14 02:56:47;;;;;;;16.02;5.15;;;19.10;99.90;;;;;;5031260;28;20034;-58
2022/07/14 02:59:13;;;;;;;13.27;5.40;;;19.00;99.90;;;;;;5031114;28;20033;-59
2022/07/14 03:01:38;;;;;;;20.05;5.25;;;19.00;99.90;;;;;;5031302;28;20071;-58
2022/07/14 03:04:04;;;;;;;18.23;6.00;;;18.90;99.90;;;;;;5030994;28;20448;-58
2022/07/14 03:06:29;;;;;;;15.05;5.43;;;18.90;99.90;;;;;;5030944;28;20026;-58
2022/07/14 03:08:55;;;;;;;21.50;5.70;;;18.90;99.90;;;;;;5045065;28;20502;-58
2022/07/14 03:11:21;;;;;;;14.02;5.40;;;18.90;99.90;;;;;;5050099;28;20056;-55
2022/07/14 03:13:47;;;;;;;10.73;4.65;;;18.80;99.90;;;;;;5050609;28;20131;-56
2022/07/14 03:16:12;;;;;;;11.85;4.90;;;18.80;99.90;;;;;;5050257;28;20128;-59
2022/07/14 03:18:39;;;;;;;13.90;4.50;;;18.80;99.90;;;;;;5047205;28;20066;-57
2022/07/14 03:21:09;;;;;;;14.95;5.57;;;18.80;99.90;;;;;;5050714;28;20041;-58
2022/07/14 03:23:34;;;;;;;21.17;5.65;;;18.80;99.90;;;;;;5049499;28;20024;-58
2022/07/14 03:26:01;;;;;;;11.48;4.78;;;18.70;99.90;;;;;;5051010;28;20386;-57
2022/07/14 03:28:26;;;;;;;13.30;4.53;;;18.70;99.90;;;;;;5050645;28;20029;-57
2022/07/14 03:30:59;;;;;;;12.07;4.55;;;18.70;99.90;;;;;;5050082;28;20040;-55
2022/07/14 03:33:24;;;;;;;11.48;4.55;;;18.70;99.90;;;;;;5050127;28;20036;-55
2022/07/14 03:35:51;;;;;;;12.02;4.82;;;18.70;99.90;;;;;;5048344;28;20062;-56
2022/07/14 03:38:17;;;;;;;20.75;5.07;;;18.60;99.90;;;;;;5030499;28;20029;-57
2022/07/14 03:40:43;;;;;;;15.13;4.75;;;18.70;99.90;;;;;;5030244;28;20395;-58
2022/07/14 03:43:08;;;;;;;15.02;5.13;;;18.70;99.90;;;;;;5030599;28;20032;-56
2022/07/14 03:45:34;;;;;;;22.45;5.93;;;18.60;99.90;;;;;;5030308;28;20026;-56
2022/07/14 03:48:00;;;;;;;9.40;4.97;;;18.50;99.90;;;;;;5044185;28;20028;-56
2022/07/14 03:50:25;;;;;;;18.15;4.90;;;18.50;99.90;;;;;;5049825;28;20029;-58
2022/07/14 03:52:51;;;;;;;27.10;5.70;;;18.60;99.90;;;;;;5030035;28;20083;-58
2022/07/14 03:55:16;;;;;;;18.27;5.38;;;18.50;99.90;;;;;;5030233;28;20025;-55
2022/07/14 03:57:42;;;;;;;16.50;4.90;;;18.50;99.90;;;;;;5030131;28;20542;-57
2022/07/14 04:00:08;;;;;;;21.60;5.20;;;18.40;99.90;;;;;;5030640;28;20103;-57
2022/07/14 04:02:34;;;;;;;23.15;5.10;;;18.50;99.90;;;;;;5030390;28;20099;-57
2022/07/14 04:04:59;;;;;;;19.80;5.43;;;18.40;99.90;;;;;;5036959;28;20423;-56
2022/07/14 04:07:25;;;;;;;17.65;5.45;;;18.40;99.90;;;;;;5050462;28;20051;-57
2022/07/14 04:09:50;;;;;;;18.63;5.20;;;18.40;99.90;;;;;;5049627;28;20055;-56
2022/07/14 04:12:16;;;;;;;21.55;5.45;;;18.40;99.90;;;;;;5049736;28;20413;-56
2022/07/14 04:14:42;;;;;;;16.08;5.25;;;18.40;99.90;;;;;;5049973;28;20486;-57
2022/07/14 04:17:07;;;;;;;14.38;5.13;;;18.40;99.90;;;;;;5049841;28;20053;-57
2022/07/14 04:19:33;;;;;;;16.13;5.28;;;18.40;99.90;;;;;;5043805;28;20112;-58
2022/07/14 04:21:59;;;;;;;21.45;5.55;;;18.30;99.90;;;;;;5029777;28;20029;-56
2022/07/14 04:24:25;;;;;;;17.77;6.18;;;18.30;99.90;;;;;;5030342;28;20561;-58
2022/07/14 04:26:50;;;;;;;18.90;5.35;;;18.30;99.90;;;;;;5031905;28;20033;-57
2022/07/14 04:29:16;;;;;;;15.23;5.78;;;18.30;99.90;;;;;;5033995;28;20399;-58
2022/07/14 04:31:42;;;;;;;14.75;4.68;;;18.20;99.90;;;;;;5033483;28;20507;-57
2022/07/14 04:34:07;;;;;;;18.45;5.47;;;18.20;99.90;;;;;;5046280;28;20071;-57
2022/07/14 04:36:33;;;;;;;15.02;4.90;;;18.10;99.90;;;;;;5069384;22;20072;-67
2022/07/14 04:38:58;;;;;;;17.23;5.55;;;18.10;99.90;;;;;;5053502;28;20040;-67
2022/07/14 04:41:25;;;;;;;23.90;5.88;;;18.10;99.90;;;;;;5053612;28;20021;-66
2022/07/14 04:43:52;;;;;;;19.75;5.25;;;18.10;99.90;;;;;;5053632;28;20025;-67
2022/07/14 04:46:18;;;;;;;18.00;5.47;;;18.10;99.90;;;;;;5053597;28;20025;-67
2022/07/14 04:54:12;;;;;;;17.43;4.93;;;18.10;99.90;;;;;;5071770;28;20117;-67
2022/07/14 04:56:37;;;;;;;14.90;5.15;;;18.20;99.90;;;;;;5072946;28;20820;-67
2022/07/14 04:59:03;;;;;;;20.77;6.03;;;18.20;99.90;;;;;;5073434;28;20048;-67
2022/07/14 05:01:28;;;;;;;19.15;6.00;;;18.20;99.90;;;;;;5073415;28;20998;-68
2022/07/14 05:03:54;;;;;;;19.63;5.47;;;18.20;99.90;;;;;;5073366;28;20400;-67
2022/07/14 05:06:19;;;;;;;17.23;5.82;;;18.10;99.90;;;;;;5073115;28;20024;-67
2022/07/14 05:08:46;;;;;;;11.40;5.30;;;18.20;99.90;;;;;;5058518;28;20028;-67
2022/07/14 05:11:11;;;;;;;19.20;5.47;;;18.10;99.90;;;;;;5050168;28;20028;-67
2022/07/14 05:13:38;;;;;;;15.30;5.00;;;18.10;99.90;;;;;;5053130;28;20025;-67
2022/07/14 05:16:04;;;;;;;14.10;5.03;;;18.10;99.90;;;;;;5053084;28;20029;-67
2022/07/14 05:18:30;;;;;;;13.80;5.40;;;18.20;99.90;;;;;;5053123;28;20033;-67
2022/07/14 05:20:55;;;;;;;16.55;5.57;;;18.20;99.90;;;;;;5054412;28;20017;-67
2022/07/14 05:23:21;;;;;;;21.73;5.50;;;18.10;99.90;;;;;;5072447;28;20086;-67
2022/07/14 05:25:46;;;;;;;28.58;6.13;;;18.10;99.90;;;;;;5072874;28;20032;-67
2022/07/14 05:28:12;;;;;;;14.40;5.28;;;18.00;99.90;;;;;;5060916;28;20040;-67
2022/07/14 05:30:37;;;;;;;15.65;5.93;;;18.10;99.90;;;;;;5053378;28;20387;-68
2022/07/14 05:33:03;;;;;;;14.57;5.28;;;18.10;99.90;;;;;;5051190;28;20079;-67
2022/07/14 05:35:29;;;;;;;15.45;5.85;;;18.20;99.90;;;;;;5052823;28;20090;-68
2022/07/14 05:37:54;;;;;;;17.52;5.63;;;18.30;99.90;;;;;;5053488;28;20037;-67
2022/07/14 05:40:20;;;;;;;21.38;5.70;;;18.30;99.90;;;;;;5052755;28;20064;-67
2022/07/14 05:42:45;;;;;;;19.48;5.55;;;18.30;99.90;;;;;;5052480;28;20028;-67
2022/07/14 05:45:11;;;;;;;21.90;5.40;;;18.30;99.90;;;;;;5051883;28;20036;-67
2022/07/14 05:47:38;;;;;;;17.02;6.13;;;18.30;99.90;;;;;;5051335;28;20024;-67
2022/07/14 05:50:04;;;;;;;21.63;6.05;;;18.40;99.90;;;;;;5052425;28;20064;-67
2022/07/14 05:52:30;;;;;;;20.70;5.85;;;18.30;99.90;;;;;;5061808;28;20028;-67
2022/07/14 05:54:59;;;;;;;25.58;6.00;;;18.30;99.90;;;;;;5072462;28;20071;-67
2022/07/14 05:57:24;;;;;;;22.23;5.72;;;18.40;99.90;;;;;;5071484;28;20029;-67
2022/07/14 05:59:50;;;;;;;19.25;5.80;;;18.40;99.90;;;;;;5072254;28;20070;-67
2022/07/14 06:02:15;;;;;;;20.65;5.75;;;18.30;99.90;;;;;;5072112;28;20039;-67
2022/07/14 06:04:41;;;;;;;28.17;6.60;;;18.30;99.90;;;;;;5072184;28;20016;-67
2022/07/14 06:07:08;;;;;;;15.98;6.32;;;18.20;99.90;;;;;;5068550;28;20391;-67
2022/07/14 06:09:38;;;;;;;23.42;5.97;;;18.20;99.90;;;;;;5052611;28;20111;-67
2022/07/14 06:12:05;;;;;;;15.80;5.82;;;18.20;99.90;;;;;;5051738;28;20024;-67
2022/07/14 06:14:31;;;;;;;19.70;5.78;;;18.30;99.90;;;;;;5051479;28;20113;-67
2022/07/14 06:16:57;;;;;;;23.08;6.55;;;18.30;99.90;;;;;;5051789;28;20494;-67
2022/07/14 06:19:23;;;;;;;15.85;5.80;;;18.40;99.90;;;;;;5051624;28;20029;-67
2022/07/14 06:21:49;;;;;;;16.30;6.00;;;18.30;99.90;;;;;;5052014;28;20032;-67
2022/07/14 06:24:14;;;;;;;30.60;6.70;;;18.30;99.90;;;;;;5051860;28;20394;-66
2022/07/14 06:26:40;;;;;;;24.02;6.47;;;18.40;99.90;;;;;;5051642;28;20017;-67
2022/07/14 06:29:06;;;;;;;21.85;6.40;;;18.40;99.90;;;;;;5051657;28;20037;-67
2022/07/14 06:31:34;;;;;;;19.40;7.53;;;18.40;99.90;;;;;;5051286;28;20543;-67
2022/07/14 06:34:00;;;;;;;20.33;6.25;;;18.40;99.90;;;;;;5051300;28;20021;-67
2022/07/14 06:36:26;;;;;;;15.50;6.70;;;18.40;99.90;;;;;;5052574;28;20742;-67
2022/07/14 06:38:52;;;;;;;18.02;6.50;;;18.50;99.90;;;;;;5051530;28;20032;-67
2022/07/14 06:41:20;;;;;;;24.88;6.18;;;18.50;99.90;;;;;;5051490;28;20595;-67
2022/07/14 06:43:46;;;;;;;18.90;6.00;;;18.60;99.90;;;;;;5051454;28;20025;-67
2022/07/14 06:46:15;;;;;;;27.77;6.05;;;18.70;99.90;;;;;;5051359;28;20060;-67
2022/07/14 06:48:42;;;;;;;17.80;6.57;;;18.70;99.90;;;;;;5050884;28;20021;-66
2022/07/14 06:51:08;;;;;;;24.98;7.28;;;18.70;99.90;;;;;;5065268;28;20036;-67
2022/07/14 06:53:33;;;;;;;18.65;5.38;;;18.70;99.90;;;;;;5069361;28;20165;-67
2022/07/14 06:55:59;;;;;;;21.02;6.35;;;18.70;99.90;;;;;;5071366;28;20066;-67
2022/07/14 06:58:24;;;;;;;20.58;6.53;;;18.80;99.90;;;;;;5069909;28;20029;-67
2022/07/14 07:00:50;;;;;;;24.17;6.90;;;18.80;99.90;;;;;;5050839;28;20106;-67
2022/07/14 07:03:15;;;;;;;18.02;6.65;;;18.90;99.90;;;;;;5056570;28;20029;-67
2022/07/14 07:08:25;;;;;;;19.42;7.13;;;18.90;99.90;;;;;;5031301;28;20044;-66
2022/07/14 07:10:51;;;;;;;17.83;5.78;;;19.00;99.90;;;;;;5037217;28;20033;-67
2022/07/14 07:13:17;;;;;;;14.73;5.15;;;19.00;99.90;;;;;;5050834;28;20025;-67
2022/07/14 07:15:42;;;;;;;20.23;6.78;;;19.00;99.90;;;;;;5050880;28;20399;-67
2022/07/14 07:18:08;;;;;;;15.10;6.40;;;19.10;99.90;;;;;;5050381;28;20040;-67
2022/07/14 07:20:36;;;;;;;34.58;7.28;;;19.00;99.90;;;;;;5057745;28;20074;-67
2022/07/14 07:23:03;;;;;;;19.80;6.15;;;19.10;99.90;;;;;;5070473;28;20028;-67
2022/07/14 07:25:29;;;;;;;30.02;7.15;;;19.20;99.90;;;;;;5070492;28;20021;-68
2022/07/14 07:27:55;;;;;;;27.52;6.45;;;19.30;99.90;;;;;;5070822;28;20165;-67
2022/07/14 07:30:21;;;;;;;23.80;6.40;;;19.30;99.90;;;;;;5070755;28;20526;-67
2022/07/14 07:32:46;;;;;;;16.98;6.13;;;19.30;99.90;;;;;;5070611;28;20024;-67
2022/07/14 07:35:12;;;;;;;23.85;6.82;;;19.40;99.90;;;;;;5068592;28;20036;-67
2022/07/14 07:37:38;;;;;;;22.95;6.25;;;19.50;99.90;;;;;;5070479;28;20621;-66
2022/07/14 07:40:04;;;;;;;15.30;5.55;;;19.60;99.90;;;;;;5065447;28;20060;-67
2022/07/14 07:42:30;;;;;;;19.90;5.50;;;19.60;99.90;;;;;;5050094;28;20017;-67
2022/07/14 07:44:55;;;;;;;14.65;6.15;;;19.60;99.90;;;;;;5051043;28;20024;-67
2022/07/14 07:47:23;;;;;;;16.55;5.85;;;19.60;99.90;;;;;;5050446;28;20029;-67
2022/07/14 07:49:48;;;;;;;17.52;5.95;;;19.60;99.90;;;;;;5063765;28;20030;-67
2022/07/14 07:52:14;;;;;;;25.13;5.43;;;19.80;99.90;;;;;;5069562;28;20095;-67
2022/07/14 07:54:39;;;;;;;19.73;6.80;;;19.90;99.90;;;;;;5065793;28;20029;-67
2022/07/14 07:57:05;;;;;;;18.60;6.13;;;19.90;99.90;;;;;;5064605;28;20036;-67
2022/07/14 07:59:31;;;;;;;15.77;6.10;;;19.90;99.90;;;;;;5070111;28;20447;-66
2022/07/14 08:01:57;;;;;;;17.90;5.07;;;19.90;99.90;;;;;;5068989;28;20128;-67
2022/07/14 08:04:22;;;;;;;24.85;6.18;;;20.10;99.90;;;;;;5070224;28;20031;-67
2022/07/14 08:06:48;;;;;;;20.10;5.40;;;20.10;99.90;;;;;;5049994;28;20043;-67
2022/07/14 08:09:13;;;;;;;20.63;5.40;;;20.10;99.90;;;;;;5049920;28;20429;-67
2022/07/14 08:11:41;;;;;;;15.80;5.00;;;20.10;99.90;;;;;;5049142;28;20437;-67
2022/07/14 08:14:47;;;;;;;13.07;4.88;;;20.20;99.90;;;;;;5051335;28;20586;-66
2022/07/14 08:16:54;;;;;;;19.17;4.85;;;20.20;99.90;;;;;;5069288;28;20068;-66
2022/07/14 08:19:19;;;;;;;12.77;4.30;;;20.30;99.90;;;;;;5061529;28;20062;-66
2022/07/14 08:21:45;;;;;;;17.83;5.72;;;20.30;99.90;;;;;;5069543;28;20052;-66
2022/07/14 08:24:10;;;;;;;21.23;4.63;;;20.40;99.90;;;;;;5069854;28;20024;-67
2022/07/14 08:26:36;;;;;;;19.55;4.50;;;20.50;99.90;;;;;;5069618;28;20054;-67
2022/07/14 08:29:01;;;;;;;18.73;4.50;;;20.60;99.90;;;;;;5069723;28;20033;-67
2022/07/14 08:31:27;;;;;;;8.95;3.80;;;20.50;99.90;;;;;;5062678;28;20021;-67
2022/07/14 08:33:52;;;;;;;10.13;3.70;;;20.40;99.90;;;;;;5049436;28;20831;-67
2022/07/14 08:36:18;;;;;;;19.52;4.25;;;20.40;99.90;;;;;;5049474;28;20059;-67
2022/07/14 08:38:43;;;;;;;20.70;4.78;;;20.50;99.90;;;;;;5049819;28;20033;-67
2022/07/14 08:41:10;;;;;;;14.00;4.93;;;20.60;99.90;;;;;;5049723;28;20487;-67
2022/07/14 08:43:37;;;;;;;18.15;4.80;;;20.60;99.90;;;;;;5049443;28;20017;-67
2022/07/14 08:46:04;;;;;;;16.10;3.80;;;20.60;99.90;;;;;;5052840;28;20028;-67
2022/07/14 08:48:30;;;;;;;15.55;4.05;;;20.60;99.90;;;;;;5060098;28;20029;-67
2022/07/14 08:50:57;;;;;;;17.65;4.50;;;20.90;99.90;;;;;;5049649;28;20025;-66
2022/07/14 08:53:23;;;;;;;9.75;3.05;;;21.20;99.90;;;;;;5048805;28;20025;-66
2022/07/14 08:55:49;;;;;;;10.75;3.72;;;21.30;99.90;;;;;;5050423;28;20025;-66
2022/07/14 08:58:15;;;;;;;12.60;3.13;;;21.50;99.90;;;;;;5050050;28;20098;-66
2022/07/14 09:00:41;;;;;;;12.80;4.15;;;21.60;99.90;;;;;;5049573;28;20021;-66
2022/07/14 09:03:06;;;;;;;17.23;3.45;;;21.40;99.90;;;;;;5054222;28;20433;-67
2022/07/14 09:05:32;;;;;;;7.63;2.85;;;21.50;99.90;;;;;;5069403;28;20028;-67
2022/07/14 09:07:58;;;;;;;17.27;3.60;;;21.50;99.90;;;;;;5069696;28;20904;-66
2022/07/14 09:10:26;;;;;;;10.00;3.22;;;21.60;99.90;;;;;;5068291;28;20029;-67
2022/07/14 09:13:09;;;;;;;15.20;3.47;;;21.70;99.90;;;;;;5070516;28;20036;-66
2022/07/14 09:15:47;;;;;;;12.75;3.50;;;21.90;99.90;;;;;;5050651;28;20029;-66
2022/07/14 09:18:21;;;;;;;13.57;3.13;;;22.00;99.90;;;;;;5069476;28;20540;-67
2022/07/14 09:20:47;;;;;;;20.55;3.90;;;22.00;99.90;;;;;;5073070;28;20035;-67
2022/07/14 09:23:13;;;;;;;6.47;3.03;;;22.00;99.90;;;;;;5072784;28;20017;-66
2022/07/14 09:25:38;;;;;;;13.10;3.53;;;21.90;99.90;;;;;;5072444;28;20028;-67
2022/07/14 09:28:06;;;;;;;12.52;3.45;;;21.90;99.90;;;;;;5072808;28;20031;-67
2022/07/14 09:30:32;;;;;;;13.18;2.72;;;21.90;99.90;;;;;;5072262;28;20398;-67
2022/07/14 09:33:01;;;;;;;17.92;3.85;;;22.10;99.90;;;;;;5055513;28;20025;-66
2022/07/14 09:35:41;;;;;;;11.23;3.05;;;22.30;99.90;;;;;;5052496;28;20021;-66
2022/07/14 09:38:17;;;;;;;16.30;2.78;;;22.40;99.90;;;;;;5052629;28;20025;-67
2022/07/14 09:40:44;;;;;;;8.82;2.95;;;22.50;99.90;;;;;;5052464;28;20036;-67
2022/07/14 09:43:13;;;;;;;9.55;2.65;;;22.50;99.90;;;;;;5050910;28;20078;-67
2022/07/14 09:45:45;;;;;;;6.00;2.00;;;22.60;99.90;;;;;;5060314;28;20032;-66
2022/07/14 09:48:13;;;;;;;7.45;2.22;;;22.70;99.90;;;;;;5072716;28;20025;-67
2022/07/14 09:51:07;;;;;;;8.23;2.40;;;22.70;99.90;;;;;;5063975;28;20064;-67
2022/07/14 09:53:33;;;;;;;7.60;2.50;;;22.70;99.90;;;;;;5049020;28;20064;-66
2022/07/14 09:56:00;;;;;;;8.27;2.13;;;22.80;99.90;;;;;;5052246;28;20067;-67
2022/07/14 09:58:28;;;;;;;5.35;2.10;;;22.80;99.90;;;;;;5052230;28;20099;-67
2022/07/14 10:00:57;;;;;;;6.22;2.40;;;22.90;99.90;;;;;;5063052;28;20021;-67
2022/07/14 10:03:24;;;;;;;15.10;3.28;;;22.90;99.90;;;;;;5053477;28;20102;-67
2022/07/14 10:05:53;;;;;;;8.50;2.35;;;22.80;99.90;;;;;;5052292;28;20155;-67
2022/07/14 10:08:22;;;;;;;10.05;2.78;;;22.70;99.90;;;;;;5052117;28;20025;-67
2022/07/14 10:10:48;;;;;;;9.27;2.53;;;22.60;99.90;;;;;;5051992;28;20124;-67
2022/07/14 10:13:15;;;;;;;6.40;2.38;;;22.60;99.90;;;;;;5051532;28;20434;-67
2022/07/14 10:15:41;;;;;;;17.23;3.08;;;22.50;99.90;;;;;;5051727;28;20025;-67
2022/07/14 10:18:07;;;;;;;17.83;2.85;;;22.50;99.90;;;;;;5067387;28;20106;-67
2022/07/14 10:20:33;;;;;;;13.88;3.00;;;22.50;99.90;;;;;;5066967;28;20446;-67
2022/07/14 10:23:01;;;;;;;10.85;2.72;;;22.70;99.90;;;;;;5050821;28;20029;-67
2022/07/14 10:25:28;;;;;;;11.45;3.17;;;22.90;99.90;;;;;;5050482;28;20029;-67
2022/07/14 10:27:54;;;;;;;9.73;2.42;;;23.20;99.90;;;;;;5051601;28;20040;-67
2022/07/14 10:30:34;;;;;;;10.65;2.97;;;23.40;99.90;;;;;;5051466;28;20033;-67
2022/07/14 10:33:28;;;;;;;11.32;2.90;;;23.60;99.90;;;;;;5051843;28;20415;-67
2022/07/14 10:38:41;;;;;;;7.13;2.38;;;23.00;99.90;;;;;;5088924;22;20072;-60
2022/07/14 10:41:07;;;;;;;10.93;2.50;;;22.90;99.90;;;;;;5071130;28;20028;-60
2022/07/14 10:44:00;;;;;;;9.85;2.67;;;23.00;99.90;;;;;;5071216;28;20029;-58
2022/07/14 10:46:39;;;;;;;6.72;2.40;;;23.30;99.90;;;;;;5071318;28;20035;-60
2022/07/14 10:49:07;;;;;;;12.13;3.05;;;23.60;99.90;;;;;;5070731;28;20395;-60
2022/07/14 10:51:33;;;;;;;8.63;2.50;;;23.90;99.90;;;;;;5071580;28;20035;-59
2022/07/14 10:54:12;;;;;;;8.80;2.15;;;24.10;99.90;;;;;;5072298;28;20418;-60
2022/07/14 10:56:40;;;;;;;7.85;1.83;;;24.30;99.90;;;;;;5072485;28;20032;-60
2022/07/14 10:59:28;;;;;;;5.65;1.92;;;24.00;99.90;;;;;;5072284;28;20025;-60
2022/07/14 11:05:12;;;;;;;10.77;2.10;;;24.00;99.90;;;;;;5072614;28;20116;-60
2022/07/14 11:07:45;;;;;;;5.88;2.10;;;24.30;99.90;;;;;;5071862;28;20269;-60
2022/07/14 11:10:19;;;;;;;5.10;1.58;;;24.70;99.90;;;;;;5072310;28;20024;-60
2022/07/14 11:13:06;;;;;;;8.15;1.63;;;24.70;99.90;;;;;;5071932;28;20021;-59
2022/07/14 11:16:03;;;;;;;5.75;1.70;;;24.60;99.90;;;;;;5072104;28;20020;-60
2022/07/14 11:18:33;;;;;;;5.55;1.58;;;24.40;99.90;;;;;;5071178;28;20472;-60
2022/07/14 11:21:17;;;;;;;4.50;1.92;;;24.40;99.90;;;;;;5072149;28;20031;-60
2022/07/14 11:23:49;;;;;;;7.65;2.00;;;24.70;99.90;;;;;;5071542;28;20069;-60
2022/07/14 11:26:34;;;;;;;9.60;2.05;;;24.50;99.90;;;;;;5071840;28;20541;-58
2022/07/14 11:29:02;;;;;;;13.77;2.38;;;24.60;99.90;;;;;;5072042;28;20032;-60
2022/07/14 11:31:41;;;;;;;11.73;2.40;;;24.80;99.90;;;;;;5071623;28;20051;-59
2022/07/14 11:37:08;;;;;;;9.77;2.15;;;25.00;99.90;;;;;;5071773;28;20504;-60
2022/07/14 11:39:35;;;;;;;10.70;2.05;;;25.30;99.90;;;;;;5072015;28;20036;-60
2022/07/14 11:42:08;;;;;;;8.15;2.10;;;25.50;99.90;;;;;;5071591;28;20078;-60
2022/07/14 11:44:40;;;;;;;15.57;3.17;;;25.50;99.90;;;;;;5071553;28;20463;-60
2022/07/14 11:47:13;;;;;;;13.38;2.50;;;25.80;99.90;;;;;;5071572;28;20033;-60
2022/07/14 11:49:39;;;;;;;10.35;2.75;;;26.00;99.90;;;;;;5071695;28;20032;-60
2022/07/14 11:52:06;;;;;;;12.45;2.92;;;26.00;99.90;;;;;;5071074;28;20028;-60
2022/07/14 11:54:33;;;;;;;9.23;2.10;;;26.20;99.90;;;;;;5071704;28;20025;-59
2022/07/14 11:57:03;;;;;;;13.98;2.10;;;26.20;99.90;;;;;;5071557;28;20409;-60
2022/07/14 11:59:30;;;;;;;5.40;1.63;;;26.50;99.90;;;;;;5071387;28;20147;-60
2022/07/14 12:02:14;;;;;;;6.25;2.03;;;26.10;99.90;;;;;;5071250;28;20017;-58
2022/07/14 12:04:58;;;;;;;9.80;2.13;;;26.30;98.60;;;;;;5071440;28;20060;-60
2022/07/14 12:07:26;;;;;;;3.70;1.92;;;26.50;99.40;;;;;;5071471;28;20450;-60
2022/07/14 12:09:53;;;;;;;4.53;2.30;;;26.40;97.20;;;;;;5071295;28;20063;-60
2022/07/14 12:12:20;;;;;;;4.72;1.75;;;25.80;97.60;;;;;;5071181;28;20119;-60
2022/07/14 12:14:53;;;;;;;6.85;1.80;;;25.70;98.60;;;;;;5071567;28;20395;-59
2022/07/14 12:17:21;;;;;;;7.63;2.05;;;25.50;98.10;;;;;;5071408;28;20029;-60
2022/07/14 12:19:47;;;;;;;5.05;1.60;;;25.40;98.10;;;;;;5071206;28;20094;-60
2022/07/14 12:22:15;;;;;;;10.07;2.15;;;25.50;98.60;;;;;;5071321;28;20406;-60
2022/07/14 12:24:41;;;;;;;8.95;1.75;;;26.10;98.60;;;;;;5071612;28;20052;-57
2022/07/14 12:27:09;;;;;;;7.07;1.77;;;26.10;97.60;;;;;;5071468;28;20048;-60
2022/07/14 12:29:43;;;;;;;4.00;1.55;;;26.40;97.30;;;;;;5071609;28;20016;-60
2022/07/14 12:32:09;;;;;;;5.95;1.73;;;26.50;96.90;;;;;;5071131;28;20115;-59
2022/07/14 12:34:35;;;;;;;3.70;1.73;;;26.60;97.40;;;;;;5071016;28;20039;-59
2022/07/14 12:37:04;;;;;;;3.17;1.70;;;26.60;96.60;;;;;;5071812;28;20033;-59
2022/07/14 12:39:30;;;;;;;3.78;1.52;;;26.30;96.90;;;;;;5071218;28;20054;-58
2022/07/14 12:41:58;;;;;;;3.63;1.88;;;26.10;96.90;;;;;;5070983;28;20024;-60
2022/07/14 12:44:24;;;;;;;10.45;2.10;;;26.20;97.50;;;;;;5071174;28;20024;-59
2022/07/14 12:47:09;;;;;;;4.90;1.73;;;26.30;97.10;;;;;;5071115;28;20020;-58
2022/07/14 12:49:42;;;;;;;7.35;1.75;;;26.30;97.80;;;;;;5074754;28;20029;-60
2022/07/14 12:52:08;;;;;;;4.43;1.53;;;26.40;97.10;;;;;;5074693;28;20039;-60
2022/07/14 12:54:34;;;;;;;6.18;1.80;;;26.40;97.30;;;;;;5074642;28;20032;-59
2022/07/14 12:57:00;;;;;;;14.55;2.28;;;26.50;97.60;;;;;;5074809;28;20025;-59
2022/07/14 12:59:34;;;;;;;3.53;1.58;;;26.50;97.00;;;;;;5074781;28;20058;-58
2022/07/14 13:02:05;;;;;;;4.68;1.88;;;26.70;97.20;;;;;;5073121;28;20047;-59